createdAt,value
2022-10-05T00:00:31.427Z,70.40
2022-10-05T00:02:59.306Z,70.50
2022-10-05T00:05:31.251Z,70.40
2022-10-05T00:08:12.679Z,70.50
2022-10-05T00:10:42.082Z,70.40
2022-10-05T00:13:14.224Z,70.50
2022-10-05T00:15:42.578Z,70.40
2022-10-05T00:18:15.017Z,70.40
2022-10-05T00:20:44.628Z,70.40
2022-10-05T00:23:18.661Z,70.40
2022-10-05T00:25:47.006Z,70.40
2022-10-05T00:28:19.347Z,70.40
2022-10-05T00:30:47.289Z,70.40
2022-10-05T00:33:15.062Z,70.40
2022-10-05T00:35:44.209Z,70.40
2022-10-05T00:38:11.958Z,70.40
2022-10-05T00:40:56.947Z,70.40
2022-10-05T00:43:52.244Z,70.40
2022-10-05T00:46:26.622Z,70.50
2022-10-05T00:49:04.142Z,70.40
2022-10-05T00:51:36.920Z,70.50
2022-10-05T00:54:21.425Z,70.40
2022-10-05T00:57:13.601Z,70.50
2022-10-05T00:59:53.262Z,70.50
2022-10-05T01:02:26.370Z,70.50
2022-10-05T01:04:59.103Z,70.50
2022-10-05T01:07:39.476Z,70.50
2022-10-05T01:10:16.753Z,70.50
2022-10-05T01:12:54.062Z,70.50
2022-10-05T01:15:27.088Z,70.50
2022-10-05T01:18:01.682Z,70.50
2022-10-05T01:20:41.404Z,70.50
2022-10-05T01:23:40.257Z,70.50
2022-10-05T01:26:22.053Z,70.50
2022-10-05T01:28:58.677Z,70.50
2022-10-05T01:31:32.295Z,70.50
2022-10-05T01:34:14.750Z,70.50
2022-10-05T01:36:50.641Z,70.50
2022-10-05T01:39:25.264Z,70.50
2022-10-05T01:41:59.082Z,70.50
2022-10-05T01:44:31.960Z,70.50
2022-10-05T01:47:07.685Z,70.50
2022-10-05T01:49:38.942Z,70.50
2022-10-05T01:52:22.043Z,70.50
2022-10-05T01:54:58.564Z,70.50
2022-10-05T01:57:35.663Z,70.50
2022-10-05T02:00:09.729Z,70.50
2022-10-05T02:02:49.246Z,70.50
2022-10-05T02:05:22.007Z,70.50
2022-10-05T02:07:54.496Z,70.50
2022-10-05T02:10:27.047Z,71.30
2022-10-05T02:13:01.111Z,70.50
2022-10-05T02:15:41.589Z,70.50
2022-10-05T02:18:15.049Z,70.50
2022-10-05T02:20:44.193Z,70.50
2022-10-05T02:23:14.674Z,70.50
2022-10-05T02:25:47.019Z,70.50
2022-10-05T02:28:21.418Z,70.50
2022-10-05T02:30:55.697Z,70.50
2022-10-05T02:33:29.215Z,70.50
2022-10-05T02:36:02.862Z,71.30
2022-10-05T02:38:40.898Z,70.50
2022-10-05T02:41:17.600Z,70.50
2022-10-05T02:43:54.340Z,70.50
2022-10-05T02:46:35.160Z,70.50
2022-10-05T02:49:15.417Z,70.50
2022-10-05T02:51:51.900Z,70.50
2022-10-05T02:54:32.502Z,70.50
2022-10-05T02:57:05.618Z,70.30
2022-10-05T02:59:39.976Z,70.50
2022-10-05T03:02:19.364Z,70.30
2022-10-05T03:04:55.961Z,70.50
2022-10-05T03:07:28.639Z,70.30
2022-10-05T03:10:07.383Z,70.40
2022-10-05T03:12:48.600Z,70.30
2022-10-05T03:15:32.277Z,70.30
2022-10-05T03:18:12.238Z,70.40
2022-10-05T03:20:48.387Z,70.30
2022-10-05T03:23:26.057Z,70.30
2022-10-05T03:26:03.782Z,70.30
2022-10-05T03:28:38.045Z,70.30
2022-10-05T03:31:15.664Z,70.30
2022-10-05T03:33:48.842Z,70.30
2022-10-05T03:36:23.503Z,71.10
2022-10-05T03:38:59.688Z,70.30
2022-10-05T03:41:34.867Z,70.30
2022-10-05T03:44:25.989Z,70.30
2022-10-05T03:47:08.948Z,70.30
2022-10-05T03:49:50.632Z,70.30
2022-10-05T03:52:23.110Z,70.30
2022-10-05T03:54:57.010Z,70.30
2022-10-05T03:57:28.062Z,70.40
2022-10-05T04:00:02.054Z,70.40
2022-10-05T04:02:44.628Z,70.30
2022-10-05T04:05:18.468Z,71.20
2022-10-05T04:07:50.756Z,70.40
2022-10-05T04:10:22.853Z,70.40
2022-10-05T04:12:56.362Z,70.30
2022-10-05T04:15:30.964Z,70.30
2022-10-05T04:18:04.458Z,70.30
2022-10-05T04:20:40.873Z,70.30
2022-10-05T04:23:18.345Z,70.30
2022-10-05T04:25:49.713Z,70.30
2022-10-05T04:28:31.032Z,70.20
2022-10-05T04:31:04.604Z,70.20
2022-10-05T04:33:33.570Z,70.20
2022-10-05T04:36:17.628Z,70.20
2022-10-05T04:38:54.874Z,70.20
2022-10-05T04:41:45.458Z,70.20
2022-10-05T04:44:28.698Z,70.20
2022-10-05T04:47:11.503Z,70.20
2022-10-05T04:50:04.875Z,70.20
2022-10-05T04:52:45.562Z,70.20
2022-10-05T04:55:22.809Z,70.90
2022-10-05T04:57:57.431Z,70.10
2022-10-05T05:00:28.237Z,70.10
2022-10-05T05:03:18.946Z,70.10
2022-10-05T05:06:15.761Z,70.10
2022-10-05T05:09:02.440Z,70.10
2022-10-05T05:11:41.202Z,70.10
2022-10-05T05:14:40.613Z,70.00
2022-10-05T05:17:20.594Z,70.00
2022-10-05T05:19:59.525Z,70.00
2022-10-05T05:22:36.122Z,70.00
2022-10-05T05:25:36.541Z,70.00
2022-10-05T05:28:24.133Z,70.00
2022-10-05T05:31:01.400Z,69.90
2022-10-05T05:33:37.165Z,69.90
2022-10-05T05:36:28.277Z,69.90
2022-10-05T05:39:13.173Z,70.00
2022-10-05T05:41:52.565Z,69.90
2022-10-05T05:44:25.009Z,69.90
2022-10-05T05:47:05.055Z,69.90
2022-10-05T05:49:48.802Z,69.90
2022-10-05T05:52:22.642Z,69.90
2022-10-05T05:54:56.468Z,69.90
2022-10-05T05:57:30.571Z,69.90
2022-10-05T06:00:06.018Z,69.90
2022-10-05T06:02:55.208Z,69.90
2022-10-05T06:05:31.886Z,69.90
2022-10-05T06:08:06.986Z,69.90
2022-10-05T06:10:41.342Z,69.90
2022-10-05T06:13:19.021Z,69.90
2022-10-05T06:15:53.124Z,69.80
2022-10-05T06:18:23.093Z,69.80
2022-10-05T06:20:58.445Z,69.80
2022-10-05T06:23:31.090Z,69.80
2022-10-05T06:26:12.935Z,69.80
2022-10-05T06:28:43.874Z,69.80
2022-10-05T06:31:24.743Z,69.80
2022-10-05T06:34:05.814Z,69.80
2022-10-05T06:36:41.854Z,69.80
2022-10-05T06:39:34.558Z,69.80
2022-10-05T06:42:20.017Z,69.80
2022-10-05T06:45:21.304Z,69.80
2022-10-05T06:48:08.332Z,69.80
2022-10-05T06:51:10.927Z,69.80
2022-10-05T06:54:09.030Z,69.80
2022-10-05T06:56:42.098Z,69.80
2022-10-05T06:59:18.960Z,69.80
2022-10-05T07:01:56.512Z,69.80
2022-10-05T07:04:43.956Z,69.80
2022-10-05T07:07:22.360Z,69.80
2022-10-05T07:10:04.260Z,69.80
2022-10-05T07:12:46.402Z,69.80
2022-10-05T07:15:28.202Z,69.80
2022-10-05T07:18:11.652Z,69.80
2022-10-05T07:20:49.169Z,69.80
2022-10-05T07:23:35.399Z,69.80
2022-10-05T07:26:08.388Z,69.90
2022-10-05T07:28:45.014Z,69.90
2022-10-05T07:31:19.341Z,69.90
2022-10-05T07:33:56.217Z,69.90
2022-10-05T07:36:55.183Z,69.90
2022-10-05T07:39:55.480Z,69.90
2022-10-05T07:42:32.543Z,69.90
2022-10-05T07:45:09.135Z,70.00
2022-10-05T07:47:43.448Z,70.00
2022-10-05T07:50:20.646Z,70.10
2022-10-05T07:52:54.800Z,70.10
2022-10-05T07:55:25.133Z,70.10
2022-10-05T07:58:02.764Z,70.10
2022-10-05T08:00:52.328Z,70.60
2022-10-05T08:03:30.214Z,70.20
2022-10-05T08:06:01.318Z,70.20
2022-10-05T08:08:36.480Z,70.20
2022-10-05T08:11:13.665Z,70.20
2022-10-05T08:13:49.286Z,70.20
2022-10-05T08:16:17.787Z,70.30
2022-10-05T08:18:55.118Z,70.30
2022-10-05T08:21:31.604Z,70.30
2022-10-05T08:24:04.045Z,70.30
2022-10-05T08:26:39.389Z,70.30
2022-10-05T08:29:16.890Z,70.40
2022-10-05T08:31:48.729Z,70.40
2022-10-05T08:34:26.743Z,70.50
2022-10-05T08:37:03.163Z,70.60
2022-10-05T08:39:37.042Z,70.60
2022-10-05T08:42:41.830Z,70.50
2022-10-05T08:45:56.543Z,70.60
2022-10-05T08:48:58.286Z,70.60
2022-10-05T08:52:09.758Z,70.70
2022-10-05T08:54:52.306Z,70.80
2022-10-05T08:57:49.748Z,70.70
2022-10-05T09:00:20.578Z,70.90
2022-10-05T09:03:15.088Z,71.00
2022-10-05T09:06:14.260Z,71.00
2022-10-05T09:09:06.174Z,71.00
2022-10-05T09:11:38.854Z,71.00
2022-10-05T09:14:23.209Z,71.00
2022-10-05T09:17:08.665Z,71.10
2022-10-05T09:20:00.745Z,71.00
2022-10-05T09:22:37.870Z,71.00
2022-10-05T09:25:17.047Z,71.10
2022-10-05T09:27:53.509Z,71.10
2022-10-05T09:30:27.838Z,71.10
2022-10-05T09:33:34.556Z,71.10
2022-10-05T09:36:23.865Z,71.20
2022-10-05T09:39:13.257Z,71.20
2022-10-05T09:42:04.518Z,71.20
2022-10-05T09:44:57.207Z,71.20
2022-10-05T09:47:54.764Z,71.20
2022-10-05T09:51:02.955Z,71.20
2022-10-05T09:54:16.223Z,71.20
2022-10-05T09:57:06.148Z,71.20
2022-10-05T10:00:09.417Z,71.30
2022-10-05T10:03:39.211Z,71.30
2022-10-05T10:06:25.268Z,71.30
2022-10-05T10:09:10.535Z,71.30
2022-10-05T10:11:50.405Z,71.30
2022-10-05T10:14:44.940Z,71.30
2022-10-05T10:17:35.414Z,71.30
2022-10-05T10:20:23.421Z,71.30
2022-10-05T10:23:28.278Z,71.30
2022-10-05T10:26:25.100Z,71.30
2022-10-05T10:29:20.686Z,71.40
2022-10-05T10:32:05.622Z,71.40
2022-10-05T10:35:12.554Z,72.20
2022-10-05T10:38:09.619Z,71.30
2022-10-05T10:40:43.000Z,71.30
2022-10-05T10:43:52.381Z,71.30
2022-10-05T10:46:35.377Z,71.30
2022-10-05T10:49:17.084Z,71.30
2022-10-05T10:52:04.294Z,71.30
2022-10-05T10:55:08.700Z,71.40
2022-10-05T10:57:56.881Z,71.50
2022-10-05T11:00:39.423Z,71.50
2022-10-05T11:03:37.362Z,71.50
2022-10-05T11:06:36.048Z,71.50
2022-10-05T11:09:45.425Z,71.50
2022-10-05T11:12:53.116Z,71.50
2022-10-05T11:15:55.942Z,71.50
2022-10-05T11:18:30.379Z,71.50
2022-10-05T11:21:18.297Z,71.50
2022-10-05T11:24:19.343Z,71.60
2022-10-05T11:27:12.947Z,71.60
2022-10-05T11:30:21.503Z,71.60
2022-10-05T11:33:22.033Z,71.70
2022-10-05T11:36:15.620Z,71.70
2022-10-05T11:39:04.184Z,71.70
2022-10-05T11:42:03.997Z,71.70
2022-10-05T11:45:08.168Z,71.70
2022-10-05T11:47:41.924Z,71.80
2022-10-05T11:50:21.364Z,71.80
2022-10-05T11:52:53.023Z,71.90
2022-10-05T11:55:27.463Z,71.80
2022-10-05T11:57:57.429Z,71.90
2022-10-05T12:00:32.140Z,71.90
2022-10-05T12:03:28.575Z,71.90
2022-10-05T12:06:07.614Z,71.90
2022-10-05T12:08:44.091Z,71.80
2022-10-05T12:11:32.665Z,71.80
2022-10-05T12:14:05.927Z,71.90
2022-10-05T12:16:45.572Z,71.70
2022-10-05T12:19:18.676Z,71.80
2022-10-05T12:21:50.938Z,71.80
2022-10-05T12:24:27.841Z,71.80
2022-10-05T12:27:00.895Z,71.80
2022-10-05T12:29:34.206Z,71.80
2022-10-05T12:32:11.580Z,71.90
2022-10-05T12:34:50.975Z,71.80
2022-10-05T12:37:41.061Z,71.90
2022-10-05T12:40:23.022Z,71.90
2022-10-05T12:42:58.069Z,71.80
2022-10-05T12:45:37.316Z,71.90
2022-10-05T12:48:23.344Z,71.80
2022-10-05T12:50:55.096Z,71.90
2022-10-05T12:53:34.464Z,71.90
2022-10-05T12:56:06.401Z,71.90
2022-10-05T12:58:48.961Z,71.80
2022-10-05T13:01:27.919Z,72.00
2022-10-05T13:04:04.257Z,72.00
2022-10-05T13:06:42.913Z,72.00
2022-10-05T13:09:19.498Z,72.00
2022-10-05T13:11:50.865Z,72.00
2022-10-05T13:14:26.114Z,72.10
2022-10-05T13:17:01.699Z,72.10
2022-10-05T13:19:41.361Z,72.10
2022-10-05T13:22:26.330Z,72.20
2022-10-05T13:25:06.178Z,72.20
2022-10-05T13:27:37.888Z,72.20
2022-10-05T13:30:13.446Z,72.20
2022-10-05T13:32:45.132Z,72.20
2022-10-05T13:35:25.391Z,72.20
2022-10-05T13:38:01.677Z,72.20
2022-10-05T13:40:36.543Z,72.20
2022-10-05T13:43:14.401Z,72.20
2022-10-05T13:45:46.700Z,73.10
2022-10-05T13:48:24.054Z,72.30
2022-10-05T13:51:03.750Z,72.30
2022-10-05T13:53:38.050Z,72.40
2022-10-05T13:56:16.558Z,72.40
2022-10-05T13:58:48.712Z,72.40
2022-10-05T14:01:19.583Z,72.40
2022-10-05T14:04:06.580Z,72.40
2022-10-05T14:06:37.962Z,72.40
2022-10-05T14:09:11.516Z,72.40
2022-10-05T14:11:49.417Z,72.50
2022-10-05T14:14:24.156Z,72.40
2022-10-05T14:16:54.613Z,72.40
2022-10-05T14:19:27.875Z,72.50
2022-10-05T14:22:01.646Z,72.50
2022-10-05T14:24:43.654Z,72.50
2022-10-05T14:27:21.908Z,72.40
2022-10-05T14:29:59.644Z,72.40
2022-10-05T14:32:30.937Z,72.50
2022-10-05T14:35:12.750Z,72.50
2022-10-05T14:37:50.100Z,72.60
2022-10-05T14:40:28.903Z,72.60
2022-10-05T14:42:57.342Z,72.70
2022-10-05T14:45:29.033Z,72.70
2022-10-05T14:48:09.732Z,72.80
2022-10-05T14:50:54.929Z,72.90
2022-10-05T14:53:25.648Z,72.90
2022-10-05T14:56:01.853Z,72.90
2022-10-05T14:58:46.341Z,72.90
2022-10-05T15:01:20.403Z,72.90
2022-10-05T15:03:54.968Z,72.90
2022-10-05T15:06:30.801Z,72.90
2022-10-05T15:09:26.994Z,72.90
2022-10-05T15:11:57.421Z,73.00
2022-10-05T15:14:31.667Z,73.30
2022-10-05T15:17:03.406Z,73.00
2022-10-05T15:19:47.642Z,72.90
2022-10-05T15:22:26.026Z,73.00
2022-10-05T15:25:03.884Z,73.00
2022-10-05T15:27:43.484Z,72.90
2022-10-05T15:30:13.354Z,72.90
2022-10-05T15:33:05.138Z,72.90
2022-10-05T15:35:39.228Z,72.90
2022-10-05T15:38:21.610Z,72.90
2022-10-05T15:41:16.392Z,72.90
2022-10-05T15:43:53.628Z,72.90
2022-10-05T15:46:28.685Z,72.90
2022-10-05T15:49:20.448Z,72.90
2022-10-05T15:51:56.417Z,72.80
2022-10-05T15:54:52.401Z,72.90
2022-10-05T15:57:26.768Z,72.80
2022-10-05T16:00:01.882Z,72.80
2022-10-05T16:02:42.615Z,72.80
2022-10-05T16:05:43.354Z,72.80
2022-10-05T16:08:51.017Z,72.80
2022-10-05T16:11:30.714Z,72.80
2022-10-05T16:14:07.288Z,72.70
2022-10-05T16:16:44.258Z,72.70
2022-10-05T16:19:20.664Z,72.70
2022-10-05T16:21:54.360Z,72.70
2022-10-05T16:24:40.648Z,72.70
2022-10-05T16:27:16.074Z,72.70
2022-10-05T16:29:55.645Z,72.70
2022-10-05T16:32:30.089Z,72.70
2022-10-05T16:35:08.693Z,72.70
2022-10-05T16:37:41.878Z,72.70
2022-10-05T16:40:18.886Z,72.70
2022-10-05T16:42:58.131Z,72.70
2022-10-05T16:45:45.756Z,72.70
2022-10-05T16:48:20.462Z,72.70
2022-10-05T16:51:09.344Z,72.60
2022-10-05T16:53:41.014Z,72.70
2022-10-05T16:56:12.871Z,72.70
2022-10-05T16:58:54.804Z,72.70
2022-10-05T17:01:41.834Z,72.70
2022-10-05T17:04:23.555Z,72.60
2022-10-05T17:07:20.122Z,72.70
2022-10-05T17:10:05.370Z,72.60
2022-10-05T17:12:46.473Z,72.70
2022-10-05T17:15:29.481Z,72.60
2022-10-05T17:18:17.083Z,72.60
2022-10-05T17:20:57.324Z,72.60
2022-10-05T17:23:37.685Z,72.60
2022-10-05T17:26:32.175Z,72.60
2022-10-05T17:29:01.663Z,72.70
2022-10-05T17:31:31.866Z,72.70
2022-10-05T17:34:27.157Z,72.50
2022-10-05T17:36:59.636Z,72.50
2022-10-05T17:39:50.118Z,72.60
2022-10-05T17:42:46.496Z,72.60
2022-10-05T17:45:53.905Z,72.60
2022-10-05T17:49:03.014Z,72.60
2022-10-05T17:52:18.704Z,72.60
2022-10-05T17:55:19.485Z,72.60
2022-10-05T17:57:47.262Z,72.50
2022-10-05T18:00:41.914Z,72.60
2022-10-05T18:03:35.329Z,72.60
2022-10-05T18:06:33.186Z,72.60
2022-10-05T18:09:34.218Z,72.60
2022-10-05T18:12:12.485Z,72.70
2022-10-05T18:14:57.475Z,72.70
2022-10-05T18:17:39.852Z,72.70
2022-10-05T18:20:19.294Z,72.70
2022-10-05T18:22:47.906Z,72.70
2022-10-05T18:25:30.612Z,72.70
2022-10-05T18:28:14.676Z,72.70
2022-10-05T18:30:58.792Z,72.60
2022-10-05T18:33:50.508Z,72.70
2022-10-05T18:36:35.446Z,72.70
2022-10-05T18:39:15.006Z,72.70
2022-10-05T18:41:54.547Z,72.60
2022-10-05T18:44:35.524Z,72.60
2022-10-05T18:47:12.744Z,72.60
2022-10-05T18:49:54.088Z,72.70
2022-10-05T18:52:32.036Z,72.70
2022-10-05T18:55:11.605Z,72.60
2022-10-05T18:57:52.018Z,72.60
2022-10-05T19:00:22.078Z,72.60
2022-10-05T19:02:53.355Z,72.60
2022-10-05T19:05:47.598Z,72.60
2022-10-05T19:08:29.474Z,72.60
2022-10-05T19:11:03.485Z,72.60
2022-10-05T19:13:41.923Z,72.60
2022-10-05T19:16:29.734Z,72.60
2022-10-05T19:19:12.784Z,72.50
2022-10-05T19:21:49.736Z,72.40
2022-10-05T19:24:32.156Z,72.40
2022-10-05T19:27:09.122Z,72.40
2022-10-05T19:30:02.140Z,72.40
2022-10-05T19:32:39.982Z,72.50
2022-10-05T19:35:18.140Z,72.40
2022-10-05T19:37:53.491Z,72.40
2022-10-05T19:40:29.091Z,72.40
2022-10-05T19:43:11.748Z,72.40
2022-10-05T19:45:48.388Z,72.40
2022-10-05T19:48:29.331Z,72.40
2022-10-05T19:50:59.793Z,72.40
2022-10-05T19:53:30.689Z,72.40
2022-10-05T19:56:17.308Z,72.50
2022-10-05T19:58:45.385Z,72.40
2022-10-05T20:01:24.659Z,72.40
2022-10-05T20:03:53.203Z,72.50
2022-10-05T20:06:22.654Z,72.40
2022-10-05T20:08:52.361Z,72.50
2022-10-05T20:11:22.518Z,72.50
2022-10-05T20:14:18.146Z,72.50
2022-10-05T20:17:04.705Z,72.50
2022-10-05T20:20:10.427Z,72.50
2022-10-05T20:22:45.970Z,72.50
2022-10-05T20:25:30.010Z,72.50
2022-10-05T20:27:58.330Z,72.60
2022-10-05T20:30:28.332Z,72.50
2022-10-05T20:32:59.506Z,72.40
2022-10-05T20:35:29.349Z,72.50
2022-10-05T20:37:59.326Z,72.40
2022-10-05T20:40:27.426Z,72.50
2022-10-05T20:42:55.299Z,72.40
2022-10-05T20:45:23.107Z,72.40
2022-10-05T20:47:50.819Z,72.40
2022-10-05T20:50:20.998Z,72.40
2022-10-05T20:52:48.759Z,72.40
2022-10-05T20:55:16.688Z,72.40
2022-10-05T20:57:46.000Z,72.40
2022-10-05T21:00:14.701Z,72.40
2022-10-05T21:02:42.408Z,72.40
2022-10-05T21:05:10.831Z,72.40
2022-10-05T21:07:40.749Z,72.40
2022-10-05T21:10:09.258Z,72.40
2022-10-05T21:12:37.080Z,72.40
2022-10-05T21:15:05.766Z,72.40
2022-10-05T21:17:35.001Z,72.40
2022-10-05T21:20:03.047Z,72.40
2022-10-05T21:22:30.829Z,72.40
2022-10-05T21:24:59.935Z,72.40
2022-10-05T21:27:28.115Z,72.40
2022-10-05T21:29:55.865Z,72.40
2022-10-05T21:32:23.609Z,72.40
2022-10-05T21:34:51.404Z,72.40
2022-10-05T21:37:19.757Z,72.40
2022-10-05T21:39:47.491Z,72.40
2022-10-05T21:42:16.552Z,72.50
2022-10-05T21:44:44.259Z,72.40
2022-10-05T21:47:12.533Z,72.40
2022-10-05T21:49:40.483Z,72.40
2022-10-05T21:52:08.327Z,72.40
2022-10-05T21:54:36.168Z,72.40
2022-10-05T21:57:04.297Z,72.40
2022-10-05T21:59:35.156Z,72.50
2022-10-05T22:02:03.403Z,72.50
2022-10-05T22:04:31.259Z,72.40
2022-10-05T22:06:59.272Z,72.40
2022-10-05T22:09:27.098Z,72.40
2022-10-05T22:11:54.895Z,72.50
2022-10-05T22:14:22.757Z,72.50
2022-10-05T22:16:53.230Z,72.50
2022-10-05T22:19:21.417Z,72.50
2022-10-05T22:21:49.165Z,72.50
2022-10-05T22:24:16.919Z,72.50
2022-10-05T22:26:47.912Z,72.50
2022-10-05T22:29:17.565Z,72.50
2022-10-05T22:31:48.486Z,72.50
2022-10-05T22:34:18.167Z,72.50
2022-10-05T22:36:47.276Z,72.50
2022-10-05T22:39:15.129Z,72.50
2022-10-05T22:41:42.922Z,72.40
2022-10-05T22:44:10.783Z,72.50
2022-10-05T22:46:38.581Z,72.40
2022-10-05T22:49:06.375Z,72.40
2022-10-05T22:51:35.654Z,72.40
2022-10-05T22:54:03.396Z,72.30
2022-10-05T22:56:31.152Z,72.40
2022-10-05T22:58:58.880Z,72.50
2022-10-05T23:01:27.021Z,72.40
2022-10-05T23:03:55.488Z,72.40
2022-10-05T23:06:23.964Z,72.40
2022-10-05T23:08:53.836Z,72.50
2022-10-05T23:11:23.669Z,72.40
2022-10-05T23:13:52.378Z,72.40
2022-10-05T23:16:22.184Z,72.40
2022-10-05T23:18:51.119Z,72.40
2022-10-05T23:21:19.973Z,72.40
2022-10-05T23:23:50.923Z,72.40
2022-10-05T23:26:22.240Z,72.50
2022-10-05T23:28:50.198Z,72.50
2022-10-05T23:31:19.947Z,72.40
2022-10-05T23:33:48.068Z,72.50
2022-10-05T23:36:17.706Z,72.50
2022-10-05T23:38:45.874Z,72.40
2022-10-05T23:41:14.320Z,72.40
2022-10-05T23:43:44.146Z,72.40
2022-10-05T23:46:12.729Z,72.40
2022-10-05T23:48:40.573Z,72.40
2022-10-05T23:51:10.360Z,72.30
2022-10-05T23:53:38.649Z,72.30
2022-10-05T23:56:06.906Z,72.40
2022-10-05T23:58:34.640Z,72.40
